Rundflug durch die Oberlausitz Fliegerclub Eibau-Oberlausitz e.V. Sektion Ultraleicht

7. Tag -12.07.2013

"Life aus Lettland... dann weiter aus Litauen"

EVAD Adazi - Riga --> EYMM Sasnava - geflogene Strecke - 310 km
0841 Z - EYMM sch.... Wetter

EPWA Warschau TAF AMD EPWA 120556Z 1206/1306 27010KT 9999 BKN005 BECMG 1206/1208 BKN020 TEMPO 1206/1306 SHRA BKN020CB PROB40 TEMPO 1211/1219 4000 TSRA BKN015CB BECMG 1217/1219 VRB02KT BECMG 1221/1223 5000 BR BKN010 TEMPO 1222/1306 1500 BR BKN005=

WETTER

WETTER

Wetter kritisch... Fliegen morgen weiter

Total schön hier in Littauen... Schauer, nasse Füße, 7°. Urlaub muss sein.

EPWA Warschau TAF AMD EPWA 121943Z 1219/1318 28006KT 9999 BKN010 PROB40 1221/1306 5000 BR BKN005 BECMG 1306/1309 BKN020 TEMPO 1310/1318 SHRA BKN015CB=

Achims Flugbericht

Freitag wollten wir nach Hause fliegen. Wird aber nix. Start EVAD noch alles gut. Den Plan, über Litauen und Polen schnell voranzukommen, durchkreuzt schlechtes Wetter über Litauen.

Da konnte auch Yvette nichts machen, die uns kontinuierlich von zuhause aus mit Flugwetterdaten versorgte.

WETTER

WETTER

Die Controlerin von Siauliai quatscht im Funk viel zu viel und zu schnell, aber Erik kommt ganz gut damit klar. Zum Glück übergibt sie bald an Kaunas Information 124,60. Er empfiehlt den Platz Sasnava EYMM. Bei tiefhängender Wolkendecke mit Ernst’s Lotsenhilfe gelandet. Der Flugplatzchef Alvydas Danilaitis war schon von Kaunasinformation über unser Kommen informiert. Er kochte gleich Kaffee, fuhr mit uns tanken. Wo meine litauischen Sprachkenntnisse nicht reichten, half Alvydas Frau Romoalda. Sie konnte perfekt deutsch.

Damit uns die Zeit nicht zu lang wird, suchten wir nach Bastelarbeiten an unseren Fliegern. Lange mussten wir nicht suchen. An der VBB war eine kleine Schönheitsreparatur fällig. Borchert, Horst und Ernst nahmen sich der Sache an.

Mit Hammer und Sichel war das Problem bald gelöst.

Alvydas und sein Sohn Asgaras brachten uns ins Hotel.

Bildergalerie

Riga

Riga

Schlechtwetter

Schlechtwetter

Landung in Littauen

Landung in Littauen

andere Länder

andere Länder

Borchert braucht unbedingt "Reitbilders" für Yvette
Aufstiegsversuche

Aufstiegsversuche